Island Escape — C6SK4 — position and weather

sailwx.info

Track history (hours):
 
Tides and Currents Weather Stations Pressure Air Temp Water Temp Dewpoint Dewpoint Depression Visibility Wind Speed Wind Dir Waves Ship Positions

Island Escape

Operator: V Ships Leisure SAM

Last reported at 2014-Sep-20 19:33 UTC. Time now 2014-Sep-20 20:01 UTC.
Position N 43°05' E 006°56'.

Length 185 m; draft 7.3 m.

Type: Passenger vessel. MMSI: 311368000.

Date/timePositionNaut miles runAvg speedWind from/ knotsBaromVisibWave heightAir tempDewpointWater temp
2014-Sep-20 19:33N 43°05' E 006°56'1211.9
2014-Sep-20 18:34N 43°14' E 007°06'1413.6
2014-Sep-20 17:33N 43°27' E 007°14'1313.3
2014-Sep-20 16:33N 43°40' E 007°19'2 1.7
2014-Sep-20 15:33N 43°41' E 007°19'0 0.0
2014-Sep-20 14:33N 43°41' E 007°19'0 0.0
2014-Sep-20 13:33N 43°41' E 007°19'0 0.0
2014-Sep-20 12:33N 43°41' E 007°19'0 0.0
2014-Sep-20 11:33N 43°41' E 007°19'0 0.0
2014-Sep-20 10:33N 43°41' E 007°19'0 0.0
2014-Sep-20 09:33N 43°41' E 007°19'0 0.1
2014-Sep-20 08:33N 43°41' E 007°19'0 0.0
2014-Sep-20 07:30N 43°41' E 007°19'0 0.0
2014-Sep-20 06:30N 43°41' E 007°19'0 0.1
2014-Sep-20 05:30N 43°41' E 007°19'0 0.0
2014-Sep-20 04:31N 43°41' E 007°19'6 5.9
2014-Sep-20 03:34N 43°37' E 007°24'5312.9
2014-Sep-19 23:25N 43°35' E 008°38'1416.1
2014-Sep-19 22:33N 43°34' E 008°57'1515.5
2014-Sep-19 21:33N 43°34' E 009°18'1616.3
2014-Sep-19 20:33N 43°33' E 009°40'1616.3
2014-Sep-19 19:33N 43°31' E 010°03'1111.0
2014-Sep-19 18:34N 43°33' E 010°18'0 0.3
2014-Sep-19 17:25N 43°33' E 010°18'0 0.0
2014-Sep-19 16:31N 43°33' E 010°18'0 0.0
2014-Sep-19 15:31N 43°33' E 010°18'0 0.0
2014-Sep-19 14:31N 43°33' E 010°18'0 0.0
2014-Sep-19 13:31N 43°33' E 010°18'0 0.0
2014-Sep-19 12:31N 43°33' E 010°18'0 0.0
2014-Sep-19 11:31N 43°33' E 010°18'0 0.0
2014-Sep-19 10:25N 43°33' E 010°18'0 0.0
2014-Sep-19 09:25N 43°33' E 010°18'0 0.0
2014-Sep-19 08:25N 43°33' E 010°18'0 0.0
2014-Sep-19 07:31N 43°33' E 010°18'0 0.0
2014-Sep-19 06:28N 43°33' E 010°18'0 0.0
2014-Sep-19 05:31N 43°33' E 010°18'0 0.1
2014-Sep-19 04:34N 43°33' E 010°18'6 5.5
2014-Sep-19 03:33N 43°30' E 010°11'1514.9
2014-Sep-19 02:34N 43°32' E 009°51'1615.8
2014-Sep-19 01:34N 43°30' E 009°29'1514.5
2014-Sep-19 00:34N 43°23' E 009°12'1515.3
2014-Sep-18 23:34N 43°11' E 008°59'98 3.7
2014-Sep-17 21:16N 41°51' E 007°42'910.8
2014-Sep-17 20:25N 41°51' E 007°30'261 6.4
2014-Sep-16 03:33N 39°33' E 002°38'7 7.1
2014-Sep-16 02:33N 39°27' E 002°41'1312.9
2014-Sep-16 01:33N 39°14' E 002°46'34 9.7
2014-Sep-15 22:03N 39°18' E 003°29'913.0
2014-Sep-15 21:21N 39°23' E 003°38'301 8.3
2014-Sep-14 09:15N 42°34' E 008°46'43 5.6
2014-Sep-14 01:33N 43°07' E 009°24'6816.9
2014-Sep-13 21:32N 42°20' E 010°31'166 6.3
2014-Sep-12 19:16N 40°39' E 013°27'1214.6
2014-Sep-12 18:26N 40°37' E 013°43'1315.0
2014-Sep-12 17:33N 40°37' E 014°00'1514.7
2014-Sep-12 16:33N 40°47' E 014°14'4 0.3
2014-Sep-12 05:22N 40°50' E 014°16'7 8.0
2014-Sep-12 04:33N 40°44' E 014°13'1312.7
2014-Sep-12 03:33N 40°34' E 014°03'1312.9
2014-Sep-12 02:33N 40°22' E 013°55'5213.0
2014-Sep-11 22:31N 39°36' E 013°25'4513.8
2014-Sep-11 19:17N 38°56' E 012°58'1216.6
2014-Sep-11 18:32N 38°45' E 012°52'1616.8
2014-Sep-11 17:33N 38°30' E 012°43'123 6.1
2014-Sep-10 21:14N 38°17' E 010°06'1112.1
2014-Sep-10 20:18N 38°18' E 009°51'  
Track history (hours):
 
Tides and Currents Weather Stations Pressure Air Temp Water Temp Dewpoint Dewpoint Depression Visibility Wind Speed Wind Dir Waves Ship Positions

Island Escape

Operator: V Ships Leisure SAM

Last reported at 2014-Sep-20 19:33 UTC. Time now 2014-Sep-20 20:01 UTC.
Position N 43°05' E 006°56'.

Length 185 m; draft 7.3 m.

Type: Passenger vessel. MMSI: 311368000.

Date/timePositionNaut miles runAvg speedWind from/ knotsBaromVisibWave heightAir tempDewpointWater temp
2014-Sep-20 19:33N 43°05' E 006°56'1211.9
2014-Sep-20 18:34N 43°14' E 007°06'1413.6
2014-Sep-20 17:33N 43°27' E 007°14'1313.3
2014-Sep-20 16:33N 43°40' E 007°19'2 1.7
2014-Sep-20 15:33N 43°41' E 007°19'0 0.0
2014-Sep-20 14:33N 43°41' E 007°19'0 0.0
2014-Sep-20 13:33N 43°41' E 007°19'0 0.0
2014-Sep-20 12:33N 43°41' E 007°19'0 0.0
2014-Sep-20 11:33N 43°41' E 007°19'0 0.0
2014-Sep-20 10:33N 43°41' E 007°19'0 0.0
2014-Sep-20 09:33N 43°41' E 007°19'0 0.1
2014-Sep-20 08:33N 43°41' E 007°19'0 0.0
2014-Sep-20 07:30N 43°41' E 007°19'0 0.0
2014-Sep-20 06:30N 43°41' E 007°19'0 0.1
2014-Sep-20 05:30N 43°41' E 007°19'0 0.0
2014-Sep-20 04:31N 43°41' E 007°19'6 5.9
2014-Sep-20 03:34N 43°37' E 007°24'5312.9
2014-Sep-19 23:25N 43°35' E 008°38'1416.1
2014-Sep-19 22:33N 43°34' E 008°57'1515.5
2014-Sep-19 21:33N 43°34' E 009°18'1616.3
2014-Sep-19 20:33N 43°33' E 009°40'1616.3
2014-Sep-19 19:33N 43°31' E 010°03'1111.0
2014-Sep-19 18:34N 43°33' E 010°18'0 0.3
2014-Sep-19 17:25N 43°33' E 010°18'0 0.0
2014-Sep-19 16:31N 43°33' E 010°18'0 0.0
2014-Sep-19 15:31N 43°33' E 010°18'0 0.0
2014-Sep-19 14:31N 43°33' E 010°18'0 0.0
2014-Sep-19 13:31N 43°33' E 010°18'0 0.0
2014-Sep-19 12:31N 43°33' E 010°18'0 0.0
2014-Sep-19 11:31N 43°33' E 010°18'0 0.0
2014-Sep-19 10:25N 43°33' E 010°18'0 0.0
2014-Sep-19 09:25N 43°33' E 010°18'0 0.0
2014-Sep-19 08:25N 43°33' E 010°18'0 0.0
2014-Sep-19 07:31N 43°33' E 010°18'0 0.0
2014-Sep-19 06:28N 43°33' E 010°18'0 0.0
2014-Sep-19 05:31N 43°33' E 010°18'0 0.1
2014-Sep-19 04:34N 43°33' E 010°18'6 5.5
2014-Sep-19 03:33N 43°30' E 010°11'1514.9
2014-Sep-19 02:34N 43°32' E 009°51'1615.8
2014-Sep-19 01:34N 43°30' E 009°29'1514.5
2014-Sep-19 00:34N 43°23' E 009°12'1515.3
2014-Sep-18 23:34N 43°11' E 008°59'98 3.7
2014-Sep-17 21:16N 41°51' E 007°42'910.8
2014-Sep-17 20:25N 41°51' E 007°30'261 6.4
2014-Sep-16 03:33N 39°33' E 002°38'7 7.1
2014-Sep-16 02:33N 39°27' E 002°41'1312.9
2014-Sep-16 01:33N 39°14' E 002°46'34 9.7
2014-Sep-15 22:03N 39°18' E 003°29'913.0
2014-Sep-15 21:21N 39°23' E 003°38'301 8.3
2014-Sep-14 09:15N 42°34' E 008°46'43 5.6
2014-Sep-14 01:33N 43°07' E 009°24'6816.9
2014-Sep-13 21:32N 42°20' E 010°31'166 6.3
2014-Sep-12 19:16N 40°39' E 013°27'1214.6
2014-Sep-12 18:26N 40°37' E 013°43'1315.0
2014-Sep-12 17:33N 40°37' E 014°00'1514.7
2014-Sep-12 16:33N 40°47' E 014°14'4 0.3
2014-Sep-12 05:22N 40°50' E 014°16'7 8.0
2014-Sep-12 04:33N 40°44' E 014°13'1312.7
2014-Sep-12 03:33N 40°34' E 014°03'1312.9
2014-Sep-12 02:33N 40°22' E 013°55'5213.0
2014-Sep-11 22:31N 39°36' E 013°25'4513.8
2014-Sep-11 19:17N 38°56' E 012°58'1216.6
2014-Sep-11 18:32N 38°45' E 012°52'1616.8
2014-Sep-11 17:33N 38°30' E 012°43'123 6.1
2014-Sep-10 21:14N 38°17' E 010°06'1112.1
2014-Sep-10 20:18N 38°18' E 009°51'  

Dump ship's entire track history